sensor_id;sensor_type;location;lat;lon;timestamp;pressure;altitude;pressure_sealevel;temperature;humidity
4012;BME280;2020;48.682;9.024;2024-03-23T00:55:28;95728.00;;;9.30;67.87
4012;BME280;2020;48.682;9.024;2024-03-23T00:57:54;95725.59;;;9.29;68.05
4012;BME280;2020;48.682;9.024;2024-03-23T01:00:19;95722.81;;;9.30;67.88
4012;BME280;2020;48.682;9.024;2024-03-23T01:02:44;95717.59;;;9.30;68.06
4012;BME280;2020;48.682;9.024;2024-03-23T01:05:10;95722.13;;;9.36;67.72
4012;BME280;2020;48.682;9.024;2024-03-23T01:07:35;95712.41;;;9.30;68.12
4012;BME280;2020;48.682;9.024;2024-03-23T01:10:00;95703.31;;;9.34;67.95
4012;BME280;2020;48.682;9.024;2024-03-23T01:12:25;95698.47;;;9.31;67.83
4012;BME280;2020;48.682;9.024;2024-03-23T01:14:51;95694.56;;;9.35;68.19
4012;BME280;2020;48.682;9.024;2024-03-23T01:17:16;95703.31;;;9.34;67.92
4012;BME280;2020;48.682;9.024;2024-03-23T01:19:41;95704.94;;;9.35;67.86
4012;BME280;2020;48.682;9.024;2024-03-23T01:22:07;95699.75;;;9.35;68.57
4012;BME280;2020;48.682;9.024;2024-03-23T01:24:35;95709.19;;;9.28;68.28
4012;BME280;2020;48.682;9.024;2024-03-23T01:27:00;95700.75;;;9.26;68.44
4012;BME280;2020;48.682;9.024;2024-03-23T01:29:25;95692.94;;;9.26;68.53
4012;BME280;2020;48.682;9.024;2024-03-23T01:31:50;95689.06;;;9.22;68.79
4012;BME280;2020;48.682;9.024;2024-03-23T01:34:16;95688.78;;;9.09;69.41
4012;BME280;2020;48.682;9.024;2024-03-23T01:36:42;95684.25;;;9.02;70.56
4012;BME280;2020;48.682;9.024;2024-03-23T01:39:07;95693.31;;;8.98;70.46
4012;BME280;2020;48.682;9.024;2024-03-23T01:41:34;95682.97;;;8.90;71.50
4012;BME280;2020;48.682;9.024;2024-03-23T01:44:05;95679.72;;;8.80;71.57
4012;BME280;2020;48.682;9.024;2024-03-23T01:46:30;95675.84;;;8.84;71.70
4012;BME280;2020;48.682;9.024;2024-03-23T01:48:55;95669.03;;;8.83;71.41
4012;BME280;2020;48.682;9.024;2024-03-23T01:51:21;95671.78;;;8.73;71.33
4012;BME280;2020;48.682;9.024;2024-03-23T01:53:46;95662.56;;;8.62;72.94
4012;BME280;2020;48.682;9.024;2024-03-23T01:56:11;95652.97;;;8.62;72.87
4012;BME280;2020;48.682;9.024;2024-03-23T01:58:38;95646.81;;;8.55;73.37
4012;BME280;2020;48.682;9.024;2024-03-23T02:01:03;95644.03;;;8.57;73.74
4012;BME280;2020;48.682;9.024;2024-03-23T02:03:29;95647.78;;;8.62;73.97
4012;BME280;2020;48.682;9.024;2024-03-23T02:05:55;95635.75;;;8.78;74.44
4012;BME280;2020;48.682;9.024;2024-03-23T02:08:22;95643.38;;;8.96;74.06
4012;BME280;2020;48.682;9.024;2024-03-23T02:10:49;95641.41;;;8.98;73.96
4012;BME280;2020;48.682;9.024;2024-03-23T02:13:15;95626.47;;;9.09;73.61
4012;BME280;2020;48.682;9.024;2024-03-23T02:15:41;95632.28;;;9.19;73.52
4012;BME280;2020;48.682;9.024;2024-03-23T02:18:09;95633.06;;;9.19;73.61
4012;BME280;2020;48.682;9.024;2024-03-23T02:20:35;95630.00;;;9.24;73.24
4012;BME280;2020;48.682;9.024;2024-03-23T02:23:00;95624.47;;;9.27;73.25
4012;BME280;2020;48.682;9.024;2024-03-23T02:25:26;95619.59;;;9.24;73.66
4012;BME280;2020;48.682;9.024;2024-03-23T02:27:51;95611.63;;;9.26;73.61
4012;BME280;2020;48.682;9.024;2024-03-23T02:30:19;95613.91;;;9.29;73.64
4012;BME280;2020;48.682;9.024;2024-03-23T02:32:44;95614.06;;;9.27;73.51
4012;BME280;2020;48.682;9.024;2024-03-23T02:35:09;95613.75;;;9.30;73.70
4012;BME280;2020;48.682;9.024;2024-03-23T02:37:34;95618.44;;;9.27;73.48
4012;BME280;2020;48.682;9.024;2024-03-23T02:40:00;95610.19;;;9.23;73.91
4012;BME280;2020;48.682;9.024;2024-03-23T02:42:25;95610.19;;;9.23;73.86
4012;BME280;2020;48.682;9.024;2024-03-23T02:44:50;95609.56;;;9.21;74.16
4012;BME280;2020;48.682;9.024;2024-03-23T02:47:16;95615.09;;;9.18;74.48
4012;BME280;2020;48.682;9.024;2024-03-23T02:49:41;95603.06;;;9.17;74.65
4012;BME280;2020;48.682;9.024;2024-03-23T02:52:06;95602.25;;;9.16;74.89
4012;BME280;2020;48.682;9.024;2024-03-23T02:54:31;95599.31;;;9.19;75.08
4012;BME280;2020;48.682;9.024;2024-03-23T02:56:57;95595.59;;;9.22;74.90
4012;BME280;2020;48.682;9.024;2024-03-23T02:59:22;95579.38;;;9.20;75.28
4012;BME280;2020;48.682;9.024;2024-03-23T03:01:47;95592.69;;;9.17;75.14
4012;BME280;2020;48.682;9.024;2024-03-23T03:04:12;95585.72;;;9.09;75.72
4012;BME280;2020;48.682;9.024;2024-03-23T03:06:38;95581.34;;;9.10;76.04
4012;BME280;2020;48.682;9.024;2024-03-23T03:09:03;95591.75;;;9.10;75.88
4012;BME280;2020;48.682;9.024;2024-03-23T03:11:29;95592.22;;;9.13;76.26
4012;BME280;2020;48.682;9.024;2024-03-23T03:13:54;95595.31;;;9.09;76.38
4012;BME280;2020;48.682;9.024;2024-03-23T03:16:20;95594.97;;;9.12;76.32
4012;BME280;2020;48.682;9.024;2024-03-23T03:18:45;95586.38;;;9.11;76.19
4012;BME280;2020;48.682;9.024;2024-03-23T03:21:12;95581.03;;;9.13;76.58
4012;BME280;2020;48.682;9.024;2024-03-23T03:23:37;95582.97;;;9.11;76.54
4012;BME280;2020;48.682;9.024;2024-03-23T03:26:03;95573.09;;;9.06;76.84
4012;BME280;2020;48.682;9.024;2024-03-23T03:28:29;95568.41;;;9.01;77.25
4012;BME280;2020;48.682;9.024;2024-03-23T03:30:56;95569.53;;;8.99;77.43
4012;BME280;2020;48.682;9.024;2024-03-23T03:33:22;95562.72;;;8.98;78.19
4012;BME280;2020;48.682;9.024;2024-03-23T03:35:47;95554.78;;;8.99;78.49
4012;BME280;2020;48.682;9.024;2024-03-23T03:38:12;95558.38;;;8.98;78.54
4012;BME280;2020;48.682;9.024;2024-03-23T03:40:37;95547.97;;;8.98;79.15
4012;BME280;2020;48.682;9.024;2024-03-23T03:43:03;95544.06;;;9.02;79.24
4012;BME280;2020;48.682;9.024;2024-03-23T03:45:28;95541.19;;;8.97;79.14
4012;BME280;2020;48.682;9.024;2024-03-23T03:47:53;95537.59;;;8.98;79.53
4012;BME280;2020;48.682;9.024;2024-03-23T03:50:21;95525.59;;;8.97;79.49
4012;BME280;2020;48.682;9.024;2024-03-23T03:52:46;95520.75;;;8.94;80.07
4012;BME280;2020;48.682;9.024;2024-03-23T03:55:13;95515.56;;;8.94;80.20
4012;BME280;2020;48.682;9.024;2024-03-23T03:57:39;95506.78;;;8.95;80.21
4012;BME280;2020;48.682;9.024;2024-03-23T04:00:05;95487.34;;;8.91;80.35
4012;BME280;2020;48.682;9.024;2024-03-23T04:02:30;95488.00;;;8.93;80.68
4012;BME280;2020;48.682;9.024;2024-03-23T04:04:56;95493.84;;;8.87;81.16
4012;BME280;2020;48.682;9.024;2024-03-23T04:07:21;95488.47;;;8.88;81.53
4012;BME280;2020;48.682;9.024;2024-03-23T04:09:48;95477.78;;;8.83;81.72
4012;BME280;2020;48.682;9.024;2024-03-23T04:12:13;95457.97;;;8.90;81.74
4012;BME280;2020;48.682;9.024;2024-03-23T04:14:38;95459.94;;;8.88;82.04
4012;BME280;2020;48.682;9.024;2024-03-23T04:17:04;95450.72;;;8.86;82.36
4012;BME280;2020;48.682;9.024;2024-03-23T04:19:29;95454.28;;;8.85;82.76
4012;BME280;2020;48.682;9.024;2024-03-23T04:21:54;95450.38;;;8.89;82.87
4012;BME280;2020;48.682;9.024;2024-03-23T04:24:19;95463.16;;;8.90;82.81
4012;BME280;2020;48.682;9.024;2024-03-23T04:26:47;95456.03;;;8.92;82.54
4012;BME280;2020;48.682;9.024;2024-03-23T04:29:12;95456.84;;;8.93;82.86
4012;BME280;2020;48.682;9.024;2024-03-23T04:31:37;95447.78;;;8.89;82.76
4012;BME280;2020;48.682;9.024;2024-03-23T04:34:03;95441.31;;;8.85;83.04
4012;BME280;2020;48.682;9.024;2024-03-23T04:36:28;95454.28;;;8.85;83.49
4012;BME280;2020;48.682;9.024;2024-03-23T04:38:54;95441.97;;;8.87;83.36
4012;BME280;2020;48.682;9.024;2024-03-23T04:41:19;95448.75;;;8.88;82.67
4012;BME280;2020;48.682;9.024;2024-03-23T04:43:44;95462.19;;;8.91;83.97
4012;BME280;2020;48.682;9.024;2024-03-23T04:46:09;95461.09;;;8.86;83.59
4012;BME280;2020;48.682;9.024;2024-03-23T04:48:35;95479.75;;;8.81;84.04
4012;BME280;2020;48.682;9.024;2024-03-23T04:51:01;95498.09;;;8.80;86.06
4012;BME280;2020;48.682;9.024;2024-03-23T04:53:26;95515.94;;;8.74;89.62
4012;BME280;2020;48.682;9.024;2024-03-23T04:55:55;95529.25;;;8.71;92.94
4012;BME280;2020;48.682;9.024;2024-03-23T04:58:22;95531.84;;;8.71;97.86
4012;BME280;2020;48.682;9.024;2024-03-23T05:00:53;95539.00;;;8.69;100.00
4012;BME280;2020;48.682;9.024;2024-03-23T05:03:18;95538.34;;;8.67;100.00
4012;BME280;2020;48.682;9.024;2024-03-23T05:05:44;95523.09;;;8.72;100.00
4012;BME280;2020;48.682;9.024;2024-03-23T05:08:09;95510.47;;;8.69;100.00
4012;BME280;2020;48.682;9.024;2024-03-23T05:10:35;95527.00;;;8.68;100.00
4012;BME280;2020;48.682;9.024;2024-03-23T05:13:00;95529.25;;;8.71;100.00
4012;BME280;2020;48.682;9.024;2024-03-23T05:15:26;95530.53;;;8.75;100.00
4012;BME280;2020;48.682;9.024;2024-03-23T05:17:51;95532.97;;;8.77;100.00
4012;BME280;2020;48.682;9.024;2024-03-23T05:20:16;95529.22;;;8.80;100.00
4012;BME280;2020;48.682;9.024;2024-03-23T05:22:43;95525.72;;;8.64;100.00
4012;BME280;2020;48.682;9.024;2024-03-23T05:25:08;95522.78;;;8.42;100.00
4012;BME280;2020;48.682;9.024;2024-03-23T05:27:35;95530.25;;;8.37;100.00
4012;BME280;2020;48.682;9.024;2024-03-23T05:30:00;95523.13;;;8.23;100.00
4012;BME280;2020;48.682;9.024;2024-03-23T05:32:25;95533.19;;;8.26;100.00
4012;BME280;2020;48.682;9.024;2024-03-23T05:34:51;95540.31;;;8.24;100.00
4012;BME280;2020;48.682;9.024;2024-03-23T05:37:21;95555.88;;;8.24;100.00
4012;BME280;2020;48.682;9.024;2024-03-23T05:39:46;95562.34;;;8.19;100.00
4012;BME280;2020;48.682;9.024;2024-03-23T05:42:13;95575.97;;;8.13;100.00
4012;BME280;2020;48.682;9.024;2024-03-23T05:44:39;95581.78;;;8.07;100.00
4012;BME280;2020;48.682;9.024;2024-03-23T05:47:05;95592.16;;;8.07;100.00
4012;BME280;2020;48.682;9.024;2024-03-23T05:49:30;95589.56;;;8.07;100.00
4012;BME280;2020;48.682;9.024;2024-03-23T05:51:55;95592.81;;;8.01;100.00
4012;BME280;2020;48.682;9.024;2024-03-23T05:54:20;95598.81;;;8.01;100.00
4012;BME280;2020;48.682;9.024;2024-03-23T05:56:46;95586.66;;;8.02;100.00
4012;BME280;2020;48.682;9.024;2024-03-23T05:59:11;95588.59;;;8.00;100.00
4012;BME280;2020;48.682;9.024;2024-03-23T06:01:36;95605.13;;;8.07;100.00
4012;BME280;2020;48.682;9.024;2024-03-23T06:04:04;95618.06;;;7.99;100.00
4012;BME280;2020;48.682;9.024;2024-03-23T06:06:29;95623.88;;;7.84;100.00
4012;BME280;2020;48.682;9.024;2024-03-23T06:08:55;95614.16;;;7.78;100.00
4012;BME280;2020;48.682;9.024;2024-03-23T06:11:20;95623.53;;;7.71;100.00
4012;BME280;2020;48.682;9.024;2024-03-23T06:13:46;95623.84;;;7.68;100.00
4012;BME280;2020;48.682;9.024;2024-03-23T06:16:11;95627.72;;;7.64;100.00
4012;BME280;2020;48.682;9.024;2024-03-23T06:18:36;95622.66;;;7.62;100.00
4012;BME280;2020;48.682;9.024;2024-03-23T06:21:02;95631.25;;;7.54;100.00
4012;BME280;2020;48.682;9.024;2024-03-23T06:23:27;95647.75;;;7.53;100.00
4012;BME280;2020;48.682;9.024;2024-03-23T06:25:52;95644.19;;;7.54;100.00
4012;BME280;2020;48.682;9.024;2024-03-23T06:28:17;95644.34;;;7.61;100.00
4012;BME280;2020;48.682;9.024;2024-03-23T06:30:43;95650.97;;;7.47;100.00
4012;BME280;2020;48.682;9.024;2024-03-23T06:33:08;95667.16;;;7.49;100.00
4012;BME280;2020;48.682;9.024;2024-03-23T06:35:33;95675.50;;;7.35;100.00
4012;BME280;2020;48.682;9.024;2024-03-23T06:37:59;95688.59;;;7.33;100.00
4012;BME280;2020;48.682;9.024;2024-03-23T06:40:24;95682.38;;;7.17;97.18
4012;BME280;2020;48.682;9.024;2024-03-23T06:42:49;95685.44;;;7.21;98.25
4012;BME280;2020;48.682;9.024;2024-03-23T06:45:15;95686.41;;;7.20;96.92
4012;BME280;2020;48.682;9.024;2024-03-23T06:47:40;95706.41;;;7.10;97.74
4012;BME280;2020;48.682;9.024;2024-03-23T06:50:06;95708.69;;;7.13;97.98
4012;BME280;2020;48.682;9.024;2024-03-23T06:52:31;95713.84;;;7.13;99.42
4012;BME280;2020;48.682;9.024;2024-03-23T06:54:57;95711.56;;;7.10;99.21
4012;BME280;2020;48.682;9.024;2024-03-23T06:57:23;95718.31;;;7.02;97.73
4012;BME280;2020;48.682;9.024;2024-03-23T06:59:48;95721.63;;;7.13;99.72
4012;BME280;2020;48.682;9.024;2024-03-23T07:02:14;95726.97;;;7.11;98.77
4012;BME280;2020;48.682;9.024;2024-03-23T07:04:39;95741.06;;;7.17;97.31
4012;BME280;2020;48.682;9.024;2024-03-23T07:07:05;95732.94;;;7.12;98.63
4012;BME280;2020;48.682;9.024;2024-03-23T07:09:30;95738.13;;;7.12;98.73
4012;BME280;2020;48.682;9.024;2024-03-23T07:11:57;95752.19;;;7.36;99.05
4012;BME280;2020;48.682;9.024;2024-03-23T07:14:23;95749.41;;;7.55;97.73
4012;BME280;2020;48.682;9.024;2024-03-23T07:16:49;95753.25;;;7.51;97.05
4012;BME280;2020;48.682;9.024;2024-03-23T07:19:15;95752.88;;;7.38;97.07
4012;BME280;2020;48.682;9.024;2024-03-23T07:21:42;95754.88;;;7.26;97.64
4012;BME280;2020;48.682;9.024;2024-03-23T07:24:07;95749.84;;;7.24;98.98
4012;BME280;2020;48.682;9.024;2024-03-23T07:26:32;95756.34;;;7.28;98.10
4012;BME280;2020;48.682;9.024;2024-03-23T07:28:57;95766.69;;;7.28;98.27
4012;BME280;2020;48.682;9.024;2024-03-23T07:31:23;95767.38;;;7.30;99.59
4012;BME280;2020;48.682;9.024;2024-03-23T07:33:49;95787.66;;;7.17;97.14
4012;BME280;2020;48.682;9.024;2024-03-23T07:36:15;95769.47;;;7.09;96.62
4012;BME280;2020;48.682;9.024;2024-03-23T07:38:41;95784.63;;;7.03;95.76
4012;BME280;2020;48.682;9.024;2024-03-23T07:41:11;95780.72;;;6.99;95.15
4012;BME280;2020;48.682;9.024;2024-03-23T07:43:38;95785.97;;;7.08;95.95
4012;BME280;2020;48.682;9.024;2024-03-23T07:46:04;95779.41;;;6.95;95.43
4012;BME280;2020;48.682;9.024;2024-03-23T07:48:30;95789.75;;;6.95;96.06
4012;BME280;2020;48.682;9.024;2024-03-23T07:53:29;95797.75;;;6.84;94.61
4012;BME280;2020;48.682;9.024;2024-03-23T07:55:56;95799.06;;;6.88;97.04
4012;BME280;2020;48.682;9.024;2024-03-23T07:58:22;95822.72;;;6.93;100.00
4012;BME280;2020;48.682;9.024;2024-03-23T08:00:48;95834.47;;;6.87;100.00
4012;BME280;2020;48.682;9.024;2024-03-23T08:03:13;95841.03;;;6.82;100.00
4012;BME280;2020;48.682;9.024;2024-03-23T08:05:38;95857.09;;;6.85;100.00
4012;BME280;2020;48.682;9.024;2024-03-23T08:08:04;95854.28;;;6.79;100.00
4012;BME280;2020;48.682;9.024;2024-03-23T08:10:29;95851.91;;;6.67;100.00
4012;BME280;2020;48.682;9.024;2024-03-23T08:12:54;95828.19;;;6.90;100.00
4012;BME280;2020;48.682;9.024;2024-03-23T08:15:19;95863.22;;;7.02;97.64
4012;BME280;2020;48.682;9.024;2024-03-23T08:17:45;95867.06;;;6.98;95.82
4012;BME280;2020;48.682;9.024;2024-03-23T08:20:10;95883.19;;;6.92;95.15
4012;BME280;2020;48.682;9.024;2024-03-23T08:22:36;95891.91;;;6.91;93.47
4012;BME280;2020;48.682;9.024;2024-03-23T08:25:01;95897.00;;;6.83;93.72
4012;BME280;2020;48.682;9.024;2024-03-23T08:27:26;95913.84;;;6.87;93.93
4012;BME280;2020;48.682;9.024;2024-03-23T08:29:51;95916.06;;;6.82;92.03
4012;BME280;2020;48.682;9.024;2024-03-23T08:32:17;95926.75;;;6.97;96.21
4012;BME280;2020;48.682;9.024;2024-03-23T08:34:42;95927.53;;;6.97;90.86
4012;BME280;2020;48.682;9.024;2024-03-23T08:37:07;95927.72;;;7.50;89.20
4012;BME280;2020;48.682;9.024;2024-03-23T08:39:32;95922.25;;;7.53;88.82
4012;BME280;2020;48.682;9.024;2024-03-23T08:41:58;95920.53;;;7.26;86.42
4012;BME280;2020;48.682;9.024;2024-03-23T08:44:23;95920.22;;;7.11;85.45
4012;BME280;2020;48.682;9.024;2024-03-23T08:46:48;95929.31;;;7.15;84.89
4012;BME280;2020;48.682;9.024;2024-03-23T08:49:13;95929.06;;;7.54;88.09
4012;BME280;2020;48.682;9.024;2024-03-23T08:51:39;95927.13;;;7.56;85.03
4012;BME280;2020;48.682;9.024;2024-03-23T08:54:04;95940.22;;;7.37;82.66
4012;BME280;2020;48.682;9.024;2024-03-23T08:56:30;95954.03;;;7.27;81.88
4012;BME280;2020;48.682;9.024;2024-03-23T08:58:55;95974.75;;;7.27;83.14
4012;BME280;2020;48.682;9.024;2024-03-23T09:01:20;95989.53;;;7.17;81.76
4012;BME280;2020;48.682;9.024;2024-03-23T09:03:45;95990.22;;;6.91;80.31
4012;BME280;2020;48.682;9.024;2024-03-23T09:06:13;96000.09;;;6.78;79.94
4012;BME280;2020;48.682;9.024;2024-03-23T09:08:38;96018.09;;;6.69;80.79
4012;BME280;2020;48.682;9.024;2024-03-23T09:11:11;96012.41;;;6.56;82.78
4012;BME280;2020;48.682;9.024;2024-03-23T09:13:37;96019.66;;;6.42;82.58
4012;BME280;2020;48.682;9.024;2024-03-23T09:16:04;96031.78;;;6.80;91.16
4012;BME280;2020;48.682;9.024;2024-03-23T09:18:32;96041.22;;;7.37;88.81
4012;BME280;2020;48.682;9.024;2024-03-23T09:20:58;96040.31;;;7.64;90.86
4012;BME280;2020;48.682;9.024;2024-03-23T09:23:23;96040.50;;;7.63;85.91
4012;BME280;2020;48.682;9.024;2024-03-23T09:25:48;96031.75;;;7.64;80.84
4012;BME280;2020;48.682;9.024;2024-03-23T09:28:13;96015.47;;;7.89;80.13
4012;BME280;2020;48.682;9.024;2024-03-23T09:30:39;96020.34;;;7.93;77.88
4012;BME280;2020;48.682;9.024;2024-03-23T09:33:08;96027.44;;;7.90;76.81
4012;BME280;2020;48.682;9.024;2024-03-23T09:35:36;96030.28;;;7.79;75.09
4012;BME280;2020;48.682;9.024;2024-03-23T09:38:02;96026.72;;;7.62;74.79
4012;BME280;2020;48.682;9.024;2024-03-23T09:40:27;96032.94;;;7.51;76.13
4012;BME280;2020;48.682;9.024;2024-03-23T09:42:52;96025.44;;;7.30;72.52
4012;BME280;2020;48.682;9.024;2024-03-23T09:45:21;96020.84;;;7.24;74.17
4012;BME280;2020;48.682;9.024;2024-03-23T09:47:47;96018.19;;;7.34;73.70
4012;BME280;2020;48.682;9.024;2024-03-23T09:50:13;96018.63;;;7.29;71.01
4012;BME280;2020;48.682;9.024;2024-03-23T09:52:39;96019.44;;;7.29;73.40
4012;BME280;2020;48.682;9.024;2024-03-23T09:55:05;96028.78;;;7.40;71.89
4012;BME280;2020;48.682;9.024;2024-03-23T09:57:31;96032.84;;;7.61;73.47
4012;BME280;2020;48.682;9.024;2024-03-23T09:59:56;96025.03;;;7.71;70.85
4012;BME280;2020;48.682;9.024;2024-03-23T10:02:23;96014.56;;;7.99;68.80
4012;BME280;2020;48.682;9.024;2024-03-23T10:04:49;96017.75;;;8.11;70.23
4012;BME280;2020;48.682;9.024;2024-03-23T10:07:21;96016.91;;;8.10;69.96
4012;BME280;2020;48.682;9.024;2024-03-23T10:09:49;96012.50;;;7.84;66.02
4012;BME280;2020;48.682;9.024;2024-03-23T10:12:18;96002.97;;;7.67;66.16
4012;BME280;2020;48.682;9.024;2024-03-23T10:14:44;96006.59;;;7.74;66.74
4012;BME280;2020;48.682;9.024;2024-03-23T10:17:21;96002.00;;;7.68;66.39
4012;BME280;2020;48.682;9.024;2024-03-23T10:19:51;96010.94;;;7.73;65.90
4012;BME280;2020;48.682;9.024;2024-03-23T10:22:19;96001.53;;;7.72;64.37
4012;BME280;2020;48.682;9.024;2024-03-23T10:24:44;96006.44;;;7.57;65.40
4012;BME280;2020;48.682;9.024;2024-03-23T10:27:15;96007.03;;;7.51;64.45
4012;BME280;2020;48.682;9.024;2024-03-23T10:29:42;96007.91;;;7.42;63.40
4012;BME280;2020;48.682;9.024;2024-03-23T10:32:11;96003.19;;;7.55;65.31
4012;BME280;2020;48.682;9.024;2024-03-23T10:34:37;95994.31;;;7.76;66.43
4012;BME280;2020;48.682;9.024;2024-03-23T10:37:04;95993.28;;;7.69;62.45
4012;BME280;2020;48.682;9.024;2024-03-23T10:39:37;96002.59;;;7.61;63.43
4012;BME280;2020;48.682;9.024;2024-03-23T10:42:04;95995.66;;;7.44;62.76
4012;BME280;2020;48.682;9.024;2024-03-23T10:44:30;96013.78;;;7.16;64.71
4012;BME280;2020;48.682;9.024;2024-03-23T10:47:00;96034.00;;;7.02;69.19
4012;BME280;2020;48.682;9.024;2024-03-23T10:49:29;96057.91;;;6.49;75.40
4012;BME280;2020;48.682;9.024;2024-03-23T10:52:04;96076.03;;;5.19;88.63
4012;BME280;2020;48.682;9.024;2024-03-23T10:54:31;96081.31;;;4.87;94.88
4012;BME280;2020;48.682;9.024;2024-03-23T10:59:29;96075.91;;;4.37;99.59
4012;BME280;2020;48.682;9.024;2024-03-23T11:01:58;96046.22;;;4.64;97.99
4012;BME280;2020;48.682;9.024;2024-03-23T11:04:35;96041.47;;;5.01;96.85
4012;BME280;2020;48.682;9.024;2024-03-23T11:07:02;96053.44;;;5.02;95.82
4012;BME280;2020;48.682;9.024;2024-03-23T11:09:41;96060.00;;;5.25;96.04
4012;BME280;2020;48.682;9.024;2024-03-23T11:14:43;96062.81;;;5.93;94.88
4012;BME280;2020;48.682;9.024;2024-03-23T11:17:09;96065.59;;;6.01;91.17
4012;BME280;2020;48.682;9.024;2024-03-23T11:19:36;96061.44;;;5.89;89.56
4012;BME280;2020;48.682;9.024;2024-03-23T11:22:02;96067.47;;;5.99;90.08
4012;BME280;2020;48.682;9.024;2024-03-23T11:24:28;96063.94;;;6.20;91.93
4012;BME280;2020;48.682;9.024;2024-03-23T11:26:53;96059.56;;;6.30;91.10
4012;BME280;2020;48.682;9.024;2024-03-23T11:29:19;96055.34;;;6.29;88.38
4012;BME280;2020;48.682;9.024;2024-03-23T11:31:53;96052.66;;;6.68;94.16
4012;BME280;2020;48.682;9.024;2024-03-23T11:34:19;96041.19;;;6.81;91.26
4012;BME280;2020;48.682;9.024;2024-03-23T11:36:46;96041.19;;;6.81;86.62
4012;BME280;2020;48.682;9.024;2024-03-23T11:39:19;96044.16;;;6.86;87.16
4012;BME280;2020;48.682;9.024;2024-03-23T11:41:49;96050.84;;;6.79;86.55
4012;BME280;2020;48.682;9.024;2024-03-23T11:44:17;96045.78;;;6.87;86.20
4012;BME280;2020;48.682;9.024;2024-03-23T11:46:43;96044.16;;;6.86;84.66
4012;BME280;2020;48.682;9.024;2024-03-23T11:49:25;96053.13;;;6.92;85.94
4012;BME280;2020;48.682;9.024;2024-03-23T11:51:52;96048.91;;;6.91;85.19
4012;BME280;2020;48.682;9.024;2024-03-23T11:54:26;96053.84;;;6.84;78.83
4012;BME280;2020;48.682;9.024;2024-03-23T11:56:59;96044.25;;;6.94;81.54
4012;BME280;2020;48.682;9.024;2024-03-23T11:59:32;96049.03;;;6.89;72.54
4012;BME280;2020;48.682;9.024;2024-03-23T12:01:58;96038.31;;;7.12;72.95
4012;BME280;2020;48.682;9.024;2024-03-23T12:04:28;96036.09;;;7.17;73.43
4012;BME280;2020;48.682;9.024;2024-03-23T12:07:13;96029.97;;;7.46;71.11
4012;BME280;2020;48.682;9.024;2024-03-23T12:09:39;96035.06;;;7.38;71.06
4012;BME280;2020;48.682;9.024;2024-03-23T12:12:17;96033.72;;;7.06;66.26
4012;BME280;2020;48.682;9.024;2024-03-23T12:15:00;96026.34;;;7.11;70.59
4012;BME280;2020;48.682;9.024;2024-03-23T12:17:26;96034.47;;;7.16;70.25
4012;BME280;2020;48.682;9.024;2024-03-23T12:19:51;96028.50;;;7.15;70.01
4012;BME280;2020;48.682;9.024;2024-03-23T12:22:20;96037.75;;;7.18;71.91
4012;BME280;2020;48.682;9.024;2024-03-23T12:24:46;96029.59;;;7.13;71.53
4012;BME280;2020;48.682;9.024;2024-03-23T12:27:11;96021.91;;;7.03;68.81
4012;BME280;2020;48.682;9.024;2024-03-23T12:29:36;96019.91;;;6.87;70.02
4012;BME280;2020;48.682;9.024;2024-03-23T12:32:04;96022.28;;;6.80;68.61
4012;BME280;2020;48.682;9.024;2024-03-23T12:34:29;96020.78;;;6.78;68.90
4012;BME280;2020;48.682;9.024;2024-03-23T12:36:56;96026.69;;;6.98;70.75
4012;BME280;2020;48.682;9.024;2024-03-23T12:39:21;96039.19;;;7.30;67.49
4012;BME280;2020;48.682;9.024;2024-03-23T12:41:49;96015.69;;;7.14;67.04
4012;BME280;2020;48.682;9.024;2024-03-23T12:44:15;96024.78;;;7.00;67.39
4012;BME280;2020;48.682;9.024;2024-03-23T12:46:43;96021.25;;;6.91;68.20
4012;BME280;2020;48.682;9.024;2024-03-23T12:49:08;96022.88;;;6.92;68.79
4012;BME280;2020;48.682;9.024;2024-03-23T12:51:33;96032.06;;;7.14;70.30
4012;BME280;2020;48.682;9.024;2024-03-23T12:53:59;96020.88;;;7.14;69.03
4012;BME280;2020;48.682;9.024;2024-03-23T12:56:24;96024.13;;;7.16;66.64
4012;BME280;2020;48.682;9.024;2024-03-23T12:58:50;96013.72;;;7.26;68.88
4012;BME280;2020;48.682;9.024;2024-03-23T13:01:19;96019.31;;;7.49;70.38
4012;BME280;2020;48.682;9.024;2024-03-23T13:03:48;96016.88;;;7.47;70.42
4012;BME280;2020;48.682;9.024;2024-03-23T13:06:14;96017.38;;;7.33;67.12
4012;BME280;2020;48.682;9.024;2024-03-23T13:08:39;96024.66;;;7.66;68.82
4012;BME280;2020;48.682;9.024;2024-03-23T13:11:06;96033.81;;;7.78;63.40
4012;BME280;2020;48.682;9.024;2024-03-23T13:13:33;96035.94;;;7.46;58.26
4012;BME280;2020;48.682;9.024;2024-03-23T13:15:59;96034.00;;;7.02;57.03
4012;BME280;2020;48.682;9.024;2024-03-23T13:18:24;96055.34;;;6.86;58.00
4012;BME280;2020;48.682;9.024;2024-03-23T13:20:49;96035.53;;;6.67;58.43
4012;BME280;2020;48.682;9.024;2024-03-23T13:23:14;96018.81;;;6.04;60.27
4012;BME280;2020;48.682;9.024;2024-03-23T13:25:40;96001.94;;;5.70;62.84
4012;BME280;2020;48.682;9.024;2024-03-23T13:28:05;95998.41;;;6.01;65.02
4012;BME280;2020;48.682;9.024;2024-03-23T13:30:30;95992.97;;;6.90;63.47
4012;BME280;2020;48.682;9.024;2024-03-23T13:32:56;95984.81;;;7.12;61.01
4012;BME280;2020;48.682;9.024;2024-03-23T13:35:21;95972.84;;;7.29;59.68
4012;BME280;2020;48.682;9.024;2024-03-23T13:37:47;95976.69;;;7.61;62.30
4012;BME280;2020;48.682;9.024;2024-03-23T13:40:13;95976.56;;;8.08;61.01
4012;BME280;2020;48.682;9.024;2024-03-23T13:42:38;95967.41;;;8.48;62.82
4012;BME280;2020;48.682;9.024;2024-03-23T13:45:04;95978.88;;;8.45;60.06
4012;BME280;2020;48.682;9.024;2024-03-23T13:47:29;95979.03;;;8.62;60.26
4012;BME280;2020;48.682;9.024;2024-03-23T13:49:54;95970.34;;;8.80;59.45
4012;BME280;2020;48.682;9.024;2024-03-23T13:52:20;95977.22;;;8.97;62.26
4012;BME280;2020;48.682;9.024;2024-03-23T13:54:48;95984.84;;;9.07;58.49
4012;BME280;2020;48.682;9.024;2024-03-23T13:57:13;95983.59;;;8.68;57.52
4012;BME280;2020;48.682;9.024;2024-03-23T13:59:38;95987.13;;;8.14;60.59
4012;BME280;2020;48.682;9.024;2024-03-23T14:02:04;95984.28;;;7.99;61.44
4012;BME280;2020;48.682;9.024;2024-03-23T14:04:29;95998.44;;;7.69;64.72
4012;BME280;2020;48.682;9.024;2024-03-23T14:06:54;96015.19;;;7.10;74.14
4012;BME280;2020;48.682;9.024;2024-03-23T14:09:20;96005.75;;;6.53;75.19
4012;BME280;2020;48.682;9.024;2024-03-23T14:11:50;96000.47;;;6.83;76.08
4012;BME280;2020;48.682;9.024;2024-03-23T14:14:16;95994.59;;;7.37;72.76
4012;BME280;2020;48.682;9.024;2024-03-23T14:16:42;95977.38;;;8.08;72.41
4012;BME280;2020;48.682;9.024;2024-03-23T14:19:07;95978.09;;;8.18;71.33
4012;BME280;2020;48.682;9.024;2024-03-23T14:21:33;95970.66;;;8.24;68.09
4012;BME280;2020;48.682;9.024;2024-03-23T14:23:59;95985.56;;;7.77;67.29
4012;BME280;2020;48.682;9.024;2024-03-23T14:26:26;95974.63;;;7.47;70.54
4012;BME280;2020;48.682;9.024;2024-03-23T14:28:51;95966.28;;;7.53;68.71